sensor_id;sensor_type;location;lat;lon;timestamp;pressure;altitude;pressure_sealevel;temperature;humidity
51083;BME280;37131;42.694;23.350;2023-02-07T00:01:44;96866.50;;;-3.37;67.17
51083;BME280;37131;42.694;23.350;2023-02-07T00:04:09;96862.88;;;-3.60;66.44
51083;BME280;37131;42.694;23.350;2023-02-07T00:06:35;96865.28;;;-3.04;65.68
51083;BME280;37131;42.694;23.350;2023-02-07T00:09:02;96868.84;;;-3.06;65.88
51083;BME280;37131;42.694;23.350;2023-02-07T00:11:27;96865.78;;;-3.11;65.41
51083;BME280;37131;42.694;23.350;2023-02-07T00:13:54;96873.16;;;-2.94;66.01
51083;BME280;37131;42.694;23.350;2023-02-07T00:16:20;96876.31;;;-3.03;64.87
51083;BME280;37131;42.694;23.350;2023-02-07T00:18:46;96887.28;;;-3.56;66.48
51083;BME280;37131;42.694;23.350;2023-02-07T00:21:13;96879.22;;;-3.22;66.68
51083;BME280;37131;42.694;23.350;2023-02-07T00:23:38;96883.56;;;-3.10;65.75
51083;BME280;37131;42.694;23.350;2023-02-07T00:26:04;96878.75;;;-3.42;67.84
51083;BME280;37131;42.694;23.350;2023-02-07T00:28:30;96889.53;;;-3.24;67.69
51083;BME280;37131;42.694;23.350;2023-02-07T00:31:03;96891.91;;;-3.08;66.67
51083;BME280;37131;42.694;23.350;2023-02-07T00:33:29;96890.81;;;-3.04;67.51
51083;BME280;37131;42.694;23.350;2023-02-07T00:35:58;96894.56;;;-3.09;67.56
51083;BME280;37131;42.694;23.350;2023-02-07T00:38:23;96890.91;;;-3.32;66.73
51083;BME280;37131;42.694;23.350;2023-02-07T00:40:49;96881.28;;;-3.14;68.13
51083;BME280;37131;42.694;23.350;2023-02-07T00:43:14;96900.50;;;-2.96;67.27
51083;BME280;37131;42.694;23.350;2023-02-07T00:45:39;96896.22;;;-3.08;67.64
51083;BME280;37131;42.694;23.350;2023-02-07T00:48:05;96898.75;;;-3.08;66.75
51083;BME280;37131;42.694;23.350;2023-02-07T00:50:30;96909.63;;;-2.92;65.68
51083;BME280;37131;42.694;23.350;2023-02-07T00:52:55;96897.88;;;-2.94;66.40
51083;BME280;37131;42.694;23.350;2023-02-07T00:55:21;96901.72;;;-3.02;66.68
51083;BME280;37131;42.694;23.350;2023-02-07T00:57:46;96895.66;;;-2.86;66.57
51083;BME280;37131;42.694;23.350;2023-02-07T01:00:12;96878.69;;;-3.55;69.23
51083;BME280;37131;42.694;23.350;2023-02-07T01:02:37;96895.00;;;-3.30;68.89
51083;BME280;37131;42.694;23.350;2023-02-07T01:05:03;96896.41;;;-3.39;68.48
51083;BME280;37131;42.694;23.350;2023-02-07T01:07:28;96896.66;;;-3.56;68.94
51083;BME280;37131;42.694;23.350;2023-02-07T01:09:54;96898.66;;;-3.47;68.93
51083;BME280;37131;42.694;23.350;2023-02-07T01:12:19;96893.91;;;-3.53;68.96
51083;BME280;37131;42.694;23.350;2023-02-07T01:14:44;96886.84;;;-3.35;68.24
51083;BME280;37131;42.694;23.350;2023-02-07T01:17:10;96885.81;;;-3.05;66.55
51083;BME280;37131;42.694;23.350;2023-02-07T01:19:35;96886.75;;;-2.93;65.05
51083;BME280;37131;42.694;23.350;2023-02-07T01:22:00;96893.56;;;-3.34;67.32
51083;BME280;37131;42.694;23.350;2023-02-07T01:24:26;96889.63;;;-3.53;68.24
51083;BME280;37131;42.694;23.350;2023-02-07T01:26:51;96892.91;;;-3.50;69.14
51083;BME280;37131;42.694;23.350;2023-02-07T01:29:16;96875.34;;;-3.55;69.28
51083;BME280;37131;42.694;23.350;2023-02-07T01:31:42;96884.38;;;-3.64;69.88
51083;BME280;37131;42.694;23.350;2023-02-07T01:34:10;96876.00;;;-3.39;69.04
51083;BME280;37131;42.694;23.350;2023-02-07T01:36:36;96877.22;;;-3.72;69.38
51083;BME280;37131;42.694;23.350;2023-02-07T01:39:02;96848.28;;;-3.58;69.40
51083;BME280;37131;42.694;23.350;2023-02-07T01:41:28;96870.03;;;-3.79;69.68
51083;BME280;37131;42.694;23.350;2023-02-07T01:44:05;96863.31;;;-3.95;71.33
51083;BME280;37131;42.694;23.350;2023-02-07T01:46:33;96874.31;;;-3.94;71.62
51083;BME280;37131;42.694;23.350;2023-02-07T01:49:06;96871.44;;;-3.88;71.73
51083;BME280;37131;42.694;23.350;2023-02-07T01:51:33;96866.84;;;-3.83;71.07
51083;BME280;37131;42.694;23.350;2023-02-07T01:54:02;96853.53;;;-4.01;71.97
51083;BME280;37131;42.694;23.350;2023-02-07T01:56:29;96868.97;;;-3.90;69.71
51083;BME280;37131;42.694;23.350;2023-02-07T01:58:55;96876.88;;;-3.94;72.50
51083;BME280;37131;42.694;23.350;2023-02-07T02:01:24;96864.50;;;-3.86;71.28
51083;BME280;37131;42.694;23.350;2023-02-07T02:03:51;96875.25;;;-3.81;71.67
51083;BME280;37131;42.694;23.350;2023-02-07T02:06:17;96878.59;;;-3.80;70.94
51083;BME280;37131;42.694;23.350;2023-02-07T02:08:44;96878.50;;;-3.79;70.98
51083;BME280;37131;42.694;23.350;2023-02-07T02:33:46;96877.81;;;-3.68;70.50
51083;BME280;37131;42.694;23.350;2023-02-07T02:36:23;96876.38;;;-3.72;70.89
51083;BME280;37131;42.694;23.350;2023-02-07T02:39:08;96879.94;;;-3.75;71.87
51083;BME280;37131;42.694;23.350;2023-02-07T02:41:41;96884.91;;;-3.31;69.83
51083;BME280;37131;42.694;23.350;2023-02-07T02:44:23;96877.47;;;-3.35;68.04
51083;BME280;37131;42.694;23.350;2023-02-07T02:46:53;96882.66;;;-3.36;68.75
51083;BME280;37131;42.694;23.350;2023-02-07T02:49:20;96885.91;;;-3.34;67.50
51083;BME280;37131;42.694;23.350;2023-02-07T02:51:50;96886.16;;;-3.52;67.78
51083;BME280;37131;42.694;23.350;2023-02-07T02:54:33;96893.91;;;-3.53;69.08
51083;BME280;37131;42.694;23.350;2023-02-07T03:10:54;96898.91;;;-3.93;67.53
51083;BME280;37131;42.694;23.350;2023-02-07T03:13:28;96904.38;;;-3.99;68.67
51083;BME280;37131;42.694;23.350;2023-02-07T03:18:38;96899.00;;;-3.80;69.32
51083;BME280;37131;42.694;23.350;2023-02-07T03:21:21;96900.28;;;-3.88;68.91
51083;BME280;37131;42.694;23.350;2023-02-07T03:23:49;96899.28;;;-3.58;67.25
51083;BME280;37131;42.694;23.350;2023-02-07T03:26:16;96895.38;;;-3.63;66.43
51083;BME280;37131;42.694;23.350;2023-02-07T03:28:45;96895.06;;;-3.86;68.97
51083;BME280;37131;42.694;23.350;2023-02-07T03:31:14;96903.47;;;-4.13;69.82
51083;BME280;37131;42.694;23.350;2023-02-07T03:33:43;96901.06;;;-3.87;68.70
51083;BME280;37131;42.694;23.350;2023-02-07T03:36:21;96894.38;;;-3.88;70.51
51083;BME280;37131;42.694;23.350;2023-02-07T03:38:49;96899.16;;;-3.69;70.18
51083;BME280;37131;42.694;23.350;2023-02-07T03:44:05;96896.94;;;-3.61;69.64
51083;BME280;37131;42.694;23.350;2023-02-07T03:46:36;96904.28;;;-3.56;68.80
51083;BME280;37131;42.694;23.350;2023-02-07T03:49:02;96891.63;;;-3.85;70.77
51083;BME280;37131;42.694;23.350;2023-02-07T03:51:28;96850.19;;;-4.30;70.96
51083;BME280;37131;42.694;23.350;2023-02-07T03:53:53;96896.41;;;-3.66;69.96
51083;BME280;37131;42.694;23.350;2023-02-07T03:56:19;96891.34;;;-3.53;69.94
51083;BME280;37131;42.694;23.350;2023-02-07T03:58:44;96897.28;;;-3.53;69.73
51083;BME280;37131;42.694;23.350;2023-02-07T04:01:09;96900.56;;;-3.65;69.15
51083;BME280;37131;42.694;23.350;2023-02-07T04:03:35;96899.38;;;-3.86;67.83
51083;BME280;37131;42.694;23.350;2023-02-07T04:06:00;96899.22;;;-3.71;68.27
51083;BME280;37131;42.694;23.350;2023-02-07T04:08:26;96898.78;;;-3.77;70.31
51083;BME280;37131;42.694;23.350;2023-02-07T04:11:02;96891.06;;;-3.90;70.35
51083;BME280;37131;42.694;23.350;2023-02-07T04:13:29;96892.38;;;-3.56;69.16
51083;BME280;37131;42.694;23.350;2023-02-07T04:15:54;96897.72;;;-3.88;69.78
51083;BME280;37131;42.694;23.350;2023-02-07T04:18:20;96888.31;;;-3.73;69.82
51083;BME280;37131;42.694;23.350;2023-02-07T04:20:45;96888.78;;;-3.80;70.24
51083;BME280;37131;42.694;23.350;2023-02-07T04:23:11;96897.59;;;-3.72;70.76
51083;BME280;37131;42.694;23.350;2023-02-07T04:25:36;96895.94;;;-3.58;68.56
51083;BME280;37131;42.694;23.350;2023-02-07T04:28:02;96892.34;;;-3.83;69.42
51083;BME280;37131;42.694;23.350;2023-02-07T04:30:27;96887.16;;;-3.96;68.90
51083;BME280;37131;42.694;23.350;2023-02-07T04:32:52;96902.91;;;-3.89;68.31
51083;BME280;37131;42.694;23.350;2023-02-07T04:35:18;96898.09;;;-4.23;70.04
51083;BME280;37131;42.694;23.350;2023-02-07T04:37:43;96902.34;;;-3.94;70.82
51083;BME280;37131;42.694;23.350;2023-02-07T04:40:09;96910.19;;;-3.83;69.18
51083;BME280;37131;42.694;23.350;2023-02-07T04:42:34;96901.38;;;-3.92;69.81
51083;BME280;37131;42.694;23.350;2023-02-07T04:44:59;96900.75;;;-3.95;70.26
51083;BME280;37131;42.694;23.350;2023-02-07T04:47:25;96903.13;;;-3.65;69.05
51083;BME280;37131;42.694;23.350;2023-02-07T04:49:50;96914.38;;;-3.96;70.46
51083;BME280;37131;42.694;23.350;2023-02-07T04:52:16;96914.19;;;-4.08;70.33
51083;BME280;37131;42.694;23.350;2023-02-07T04:54:41;96908.72;;;-3.87;69.39
51083;BME280;37131;42.694;23.350;2023-02-07T04:57:06;96928.75;;;-3.81;68.86
51083;BME280;37131;42.694;23.350;2023-02-07T04:59:32;96932.41;;;-4.14;71.72
51083;BME280;37131;42.694;23.350;2023-02-07T05:01:57;96936.22;;;-3.92;69.68
51083;BME280;37131;42.694;23.350;2023-02-07T05:04:22;96930.28;;;-3.78;69.07
51083;BME280;37131;42.694;23.350;2023-02-07T05:06:48;96929.06;;;-4.00;69.89
51083;BME280;37131;42.694;23.350;2023-02-07T05:09:13;96934.59;;;-3.93;70.20
51083;BME280;37131;42.694;23.350;2023-02-07T05:11:39;96933.38;;;-3.73;69.07
51083;BME280;37131;42.694;23.350;2023-02-07T05:14:04;96932.44;;;-3.58;68.63
51083;BME280;37131;42.694;23.350;2023-02-07T05:16:29;96933.56;;;-3.76;68.47
51083;BME280;37131;42.694;23.350;2023-02-07T05:18:54;96932.53;;;-3.59;69.56
51083;BME280;37131;42.694;23.350;2023-02-07T05:21:20;96948.31;;;-3.81;68.16
51083;BME280;37131;42.694;23.350;2023-02-07T05:23:45;96944.06;;;-3.95;70.03
51083;BME280;37131;42.694;23.350;2023-02-07T05:26:10;96939.09;;;-3.70;68.43
51083;BME280;37131;42.694;23.350;2023-02-07T05:28:35;96944.78;;;-3.79;69.37
51083;BME280;37131;42.694;23.350;2023-02-07T05:31:01;96948.47;;;-3.56;68.61
51083;BME280;37131;42.694;23.350;2023-02-07T05:33:26;96949.66;;;-3.61;69.71
51083;BME280;37131;42.694;23.350;2023-02-07T05:35:51;96957.03;;;-3.71;68.93
51083;BME280;37131;42.694;23.350;2023-02-07T05:38:17;96954.69;;;-3.74;69.39
51083;BME280;37131;42.694;23.350;2023-02-07T05:40:43;96952.53;;;-3.53;68.12
51083;BME280;37131;42.694;23.350;2023-02-07T05:43:09;96958.69;;;-3.56;68.47
51083;BME280;37131;42.694;23.350;2023-02-07T05:45:35;96965.91;;;-3.35;66.99
51083;BME280;37131;42.694;23.350;2023-02-07T05:48:00;96966.22;;;-3.54;69.67
51083;BME280;37131;42.694;23.350;2023-02-07T05:50:26;96967.81;;;-3.39;67.23
51083;BME280;37131;42.694;23.350;2023-02-07T05:52:51;96977.75;;;-3.48;68.61
51083;BME280;37131;42.694;23.350;2023-02-07T05:55:17;96973.44;;;-3.75;69.14
51083;BME280;37131;42.694;23.350;2023-02-07T05:57:42;96979.00;;;-3.68;69.21
51083;BME280;37131;42.694;23.350;2023-02-07T06:00:09;96971.53;;;-3.30;67.62
51083;BME280;37131;42.694;23.350;2023-02-07T06:02:37;96975.25;;;-3.63;68.81
51083;BME280;37131;42.694;23.350;2023-02-07T06:05:02;96976.44;;;-3.68;69.18
51083;BME280;37131;42.694;23.350;2023-02-07T06:07:27;96972.25;;;-3.70;68.64
51083;BME280;37131;42.694;23.350;2023-02-07T06:09:52;96973.41;;;-3.46;67.60
51083;BME280;37131;42.694;23.350;2023-02-07T06:12:18;96977.50;;;-3.44;66.51
51083;BME280;37131;42.694;23.350;2023-02-07T06:14:43;96985.34;;;-3.47;65.99
51083;BME280;37131;42.694;23.350;2023-02-07T06:17:08;96977.25;;;-3.68;65.96
51083;BME280;37131;42.694;23.350;2023-02-07T06:19:33;96978.63;;;-3.77;67.39
51083;BME280;37131;42.694;23.350;2023-02-07T06:21:59;96984.69;;;-3.50;67.70
51083;BME280;37131;42.694;23.350;2023-02-07T06:24:24;96991.84;;;-3.28;66.38
51083;BME280;37131;42.694;23.350;2023-02-07T06:26:49;96981.25;;;-3.22;66.46
51083;BME280;37131;42.694;23.350;2023-02-07T06:29:14;96990.91;;;-3.13;65.87
51083;BME280;37131;42.694;23.350;2023-02-07T06:31:40;96988.25;;;-2.84;64.88
51083;BME280;37131;42.694;23.350;2023-02-07T06:34:05;96988.50;;;-3.02;63.58
51083;BME280;37131;42.694;23.350;2023-02-07T06:36:30;96991.59;;;-2.96;64.41
51083;BME280;37131;42.694;23.350;2023-02-07T06:38:56;97000.50;;;-2.89;63.43
51083;BME280;37131;42.694;23.350;2023-02-07T06:41:21;97003.56;;;-2.84;62.49
51083;BME280;37131;42.694;23.350;2023-02-07T06:43:46;97000.84;;;-3.08;63.01
51083;BME280;37131;42.694;23.350;2023-02-07T06:46:12;97011.09;;;-3.37;64.36
51083;BME280;37131;42.694;23.350;2023-02-07T06:48:37;97012.03;;;-3.53;64.97
51083;BME280;37131;42.694;23.350;2023-02-07T06:51:02;97011.84;;;-3.64;66.93
51083;BME280;37131;42.694;23.350;2023-02-07T06:53:27;97010.19;;;-3.50;66.53
51083;BME280;37131;42.694;23.350;2023-02-07T06:55:53;97006.72;;;-3.35;64.32
51083;BME280;37131;42.694;23.350;2023-02-07T06:58:19;97004.47;;;-3.68;66.31
51083;BME280;37131;42.694;23.350;2023-02-07T07:00:44;97010.19;;;-3.36;64.64
51083;BME280;37131;42.694;23.350;2023-02-07T07:03:13;97016.38;;;-3.55;65.94
51083;BME280;37131;42.694;23.350;2023-02-07T07:05:39;97016.47;;;-3.42;66.12
51083;BME280;37131;42.694;23.350;2023-02-07T07:08:05;97017.94;;;-3.38;65.50
51083;BME280;37131;42.694;23.350;2023-02-07T07:10:30;97012.34;;;-3.30;64.91
51083;BME280;37131;42.694;23.350;2023-02-07T07:12:55;97011.34;;;-3.27;64.58
51083;BME280;37131;42.694;23.350;2023-02-07T07:15:21;97010.34;;;-2.97;65.33
51083;BME280;37131;42.694;23.350;2023-02-07T07:17:46;97006.66;;;-2.79;64.24
51083;BME280;37131;42.694;23.350;2023-02-07T07:20:11;97009.97;;;-2.64;63.11
51083;BME280;37131;42.694;23.350;2023-02-07T07:22:37;97016.56;;;-2.74;62.32
51083;BME280;37131;42.694;23.350;2023-02-07T07:25:02;97011.16;;;-3.24;64.52
51083;BME280;37131;42.694;23.350;2023-02-07T07:27:28;97011.78;;;-3.21;63.94
51083;BME280;37131;42.694;23.350;2023-02-07T07:29:53;97010.25;;;-2.69;62.83
51083;BME280;37131;42.694;23.350;2023-02-07T07:32:19;97013.88;;;-2.86;62.81
51083;BME280;37131;42.694;23.350;2023-02-07T07:34:44;97010.50;;;-2.86;62.96
51083;BME280;37131;42.694;23.350;2023-02-07T07:37:12;97006.97;;;-2.71;62.35
51083;BME280;37131;42.694;23.350;2023-02-07T07:39:37;97000.75;;;-2.67;63.66
51083;BME280;37131;42.694;23.350;2023-02-07T07:42:03;97002.06;;;-2.74;64.26
51083;BME280;37131;42.694;23.350;2023-02-07T07:44:28;96995.34;;;-2.62;63.81
51083;BME280;37131;42.694;23.350;2023-02-07T07:46:53;97006.72;;;-2.80;65.18
51083;BME280;37131;42.694;23.350;2023-02-07T07:49:19;97005.31;;;-2.85;64.84
51083;BME280;37131;42.694;23.350;2023-02-07T07:51:44;97011.13;;;-3.10;64.90
51083;BME280;37131;42.694;23.350;2023-02-07T07:54:11;97000.06;;;-2.69;64.12
51083;BME280;37131;42.694;23.350;2023-02-07T07:56:37;97001.56;;;-2.79;62.69
51083;BME280;37131;42.694;23.350;2023-02-07T07:59:02;97006.25;;;-2.73;63.10
51083;BME280;37131;42.694;23.350;2023-02-07T08:01:27;97012.06;;;-2.71;63.59
51083;BME280;37131;42.694;23.350;2023-02-07T08:03:53;97007.31;;;-2.62;62.61
51083;BME280;37131;42.694;23.350;2023-02-07T08:06:18;97002.22;;;-2.62;61.81
51083;BME280;37131;42.694;23.350;2023-02-07T08:08:44;97006.81;;;-2.55;62.05
51083;BME280;37131;42.694;23.350;2023-02-07T08:11:09;97008.47;;;-2.41;61.41
51083;BME280;37131;42.694;23.350;2023-02-07T08:13:35;97005.81;;;-2.39;61.31
51083;BME280;37131;42.694;23.350;2023-02-07T08:16:01;97002.56;;;-2.16;60.63
51083;BME280;37131;42.694;23.350;2023-02-07T08:18:27;97004.59;;;-2.47;61.22
51083;BME280;37131;42.694;23.350;2023-02-07T08:20:53;97003.88;;;-2.36;61.62
51083;BME280;37131;42.694;23.350;2023-02-07T08:23:18;96998.69;;;-1.96;60.47
51083;BME280;37131;42.694;23.350;2023-02-07T08:25:43;96995.72;;;-2.02;58.36
51083;BME280;37131;42.694;23.350;2023-02-07T08:28:11;96998.28;;;-1.89;58.88
51083;BME280;37131;42.694;23.350;2023-02-07T08:30:37;97004.03;;;-1.86;58.45
51083;BME280;37131;42.694;23.350;2023-02-07T08:33:02;96995.19;;;-1.82;59.11
51083;BME280;37131;42.694;23.350;2023-02-07T08:35:28;96993.44;;;-1.55;58.39
51083;BME280;37131;42.694;23.350;2023-02-07T08:37:53;96992.03;;;-1.22;56.78
51083;BME280;37131;42.694;23.350;2023-02-07T08:40:20;96986.16;;;-1.49;57.32
51083;BME280;37131;42.694;23.350;2023-02-07T08:42:45;96996.53;;;-1.63;58.03
51083;BME280;37131;42.694;23.350;2023-02-07T08:45:11;96996.34;;;-1.36;55.63
51083;BME280;37131;42.694;23.350;2023-02-07T08:47:36;96993.88;;;-1.74;56.06
51083;BME280;37131;42.694;23.350;2023-02-07T08:50:04;96994.06;;;-1.78;58.09
51083;BME280;37131;42.694;23.350;2023-02-07T08:52:29;96994.13;;;-1.41;57.59
51083;BME280;37131;42.694;23.350;2023-02-07T08:54:55;96996.09;;;-1.44;57.76
51083;BME280;37131;42.694;23.350;2023-02-07T08:57:20;97004.06;;;-1.49;57.26
51083;BME280;37131;42.694;23.350;2023-02-07T08:59:49;97001.41;;;-1.34;56.99
51083;BME280;37131;42.694;23.350;2023-02-07T09:02:15;96997.44;;;-1.64;58.81
51083;BME280;37131;42.694;23.350;2023-02-07T09:04:40;96997.22;;;-1.61;58.32
51083;BME280;37131;42.694;23.350;2023-02-07T09:07:07;97002.34;;;-1.24;57.80
51083;BME280;37131;42.694;23.350;2023-02-07T09:09:33;97009.19;;;-1.49;58.19
51083;BME280;37131;42.694;23.350;2023-02-07T09:11:58;97008.91;;;-1.70;59.46
51083;BME280;37131;42.694;23.350;2023-02-07T09:14:23;97008.41;;;-1.75;60.85
51083;BME280;37131;42.694;23.350;2023-02-07T09:16:48;96997.44;;;-1.51;60.65
51083;BME280;37131;42.694;23.350;2023-02-07T09:19:13;97001.56;;;-1.25;58.39
51083;BME280;37131;42.694;23.350;2023-02-07T09:21:39;97000.16;;;-1.04;57.08
51083;BME280;37131;42.694;23.350;2023-02-07T09:24:04;96998.75;;;-0.84;55.95
51083;BME280;37131;42.694;23.350;2023-02-07T09:26:30;96997.16;;;-0.98;55.81
51083;BME280;37131;42.694;23.350;2023-02-07T09:28:57;96990.50;;;-1.01;56.31
51083;BME280;37131;42.694;23.350;2023-02-07T09:31:23;96990.91;;;-0.94;56.14
51083;BME280;37131;42.694;23.350;2023-02-07T09:33:49;96989.47;;;-1.22;57.54
51083;BME280;37131;42.694;23.350;2023-02-07T09:36:24;96981.47;;;-0.94;57.52
51083;BME280;37131;42.694;23.350;2023-02-07T09:38:49;96977.34;;;-0.83;56.57
51083;BME280;37131;42.694;23.350;2023-02-07T09:44:31;96987.63;;;-1.70;59.51
51083;BME280;37131;42.694;23.350;2023-02-07T09:47:08;96980.16;;;-1.24;58.20
51083;BME280;37131;42.694;23.350;2023-02-07T09:49:36;96979.91;;;-0.83;57.07
51083;BME280;37131;42.694;23.350;2023-02-07T09:52:03;96972.03;;;-0.93;57.44
51083;BME280;37131;42.694;23.350;2023-02-07T09:54:42;96969.44;;;-0.80;56.19
51083;BME280;37131;42.694;23.350;2023-02-07T09:57:11;96958.28;;;-0.68;56.60
51083;BME280;37131;42.694;23.350;2023-02-07T09:59:43;96963.84;;;-0.85;56.32
51083;BME280;37131;42.694;23.350;2023-02-07T10:02:19;96966.56;;;-1.00;56.19
51083;BME280;37131;42.694;23.350;2023-02-07T10:04:46;96957.28;;;-0.90;57.32
51083;BME280;37131;42.694;23.350;2023-02-07T10:07:12;96958.28;;;-1.41;58.36
51083;BME280;37131;42.694;23.350;2023-02-07T10:09:38;96968.16;;;-1.47;59.61
51083;BME280;37131;42.694;23.350;2023-02-07T10:25:29;96937.41;;;-1.10;56.38
51083;BME280;37131;42.694;23.350;2023-02-07T10:28:03;96932.03;;;-0.94;55.31
51083;BME280;37131;42.694;23.350;2023-02-07T10:30:33;96932.72;;;-0.57;55.46
51083;BME280;37131;42.694;23.350;2023-02-07T10:33:11;96929.94;;;-0.42;54.99
51083;BME280;37131;42.694;23.350;2023-02-07T10:35:38;96934.59;;;-0.83;55.13
51083;BME280;37131;42.694;23.350;2023-02-07T10:38:04;96932.66;;;-0.68;55.96
51083;BME280;37131;42.694;23.350;2023-02-07T10:40:46;96931.13;;;-0.24;54.09
51083;BME280;37131;42.694;23.350;2023-02-07T10:43:23;96924.66;;;-0.63;56.35
51083;BME280;37131;42.694;23.350;2023-02-07T10:45:51;96924.91;;;-0.91;57.18
51083;BME280;37131;42.694;23.350;2023-02-07T10:48:18;96922.75;;;-0.84;56.20
51083;BME280;37131;42.694;23.350;2023-02-07T10:50:43;96922.56;;;-0.58;56.53
51083;BME280;37131;42.694;23.350;2023-02-07T10:53:09;96920.38;;;-0.40;54.21
51083;BME280;37131;42.694;23.350;2023-02-07T10:55:41;96914.63;;;-1.02;56.21
51083;BME280;37131;42.694;23.350;2023-02-07T10:58:15;96911.31;;;-0.33;55.22
51083;BME280;37131;42.694;23.350;2023-02-07T11:00:42;96906.91;;;-0.08;53.72
51083;BME280;37131;42.694;23.350;2023-02-07T11:03:12;96903.28;;;0.06;52.54
51083;BME280;37131;42.694;23.350;2023-02-07T11:05:39;96903.25;;;-0.51;53.27
51083;BME280;37131;42.694;23.350;2023-02-07T11:10:38;96888.25;;;0.12;53.60
51083;BME280;37131;42.694;23.350;2023-02-07T11:13:04;96883.81;;;0.14;54.04
51083;BME280;37131;42.694;23.350;2023-02-07T11:15:37;96898.28;;;0.04;50.81
51083;BME280;37131;42.694;23.350;2023-02-07T11:18:03;96885.69;;;0.24;50.49
51083;BME280;37131;42.694;23.350;2023-02-07T11:22:54;96889.56;;;-0.16;50.09
51083;BME280;37131;42.694;23.350;2023-02-07T11:25:27;96890.00;;;0.01;50.15
51083;BME280;37131;42.694;23.350;2023-02-07T11:27:53;96877.31;;;-0.12;49.88
51083;BME280;37131;42.694;23.350;2023-02-07T11:30:19;96878.72;;;-0.31;51.41
51083;BME280;37131;42.694;23.350;2023-02-07T11:32:58;96877.75;;;-0.52;52.20
51083;BME280;37131;42.694;23.350;2023-02-07T11:35:25;96878.13;;;-0.23;50.95
51083;BME280;37131;42.694;23.350;2023-02-07T11:38:00;96875.88;;;0.17;50.04
51083;BME280;37131;42.694;23.350;2023-02-07T11:40:34;96881.03;;;-0.39;51.28
51083;BME280;37131;42.694;23.350;2023-02-07T11:43:01;96871.94;;;-0.55;51.03
51083;BME280;37131;42.694;23.350;2023-02-07T11:45:27;96873.56;;;-0.54;51.23
51083;BME280;37131;42.694;23.350;2023-02-07T11:47:55;96870.16;;;-0.65;52.79
51083;BME280;37131;42.694;23.350;2023-02-07T11:50:26;96872.78;;;-0.90;53.24
51083;BME280;37131;42.694;23.350;2023-02-07T11:52:53;96866.81;;;-0.55;52.06
51083;BME280;37131;42.694;23.350;2023-02-07T11:55:21;96865.53;;;-0.38;51.20
51083;BME280;37131;42.694;23.350;2023-02-07T11:57:47;96865.56;;;-0.26;50.73
51083;BME280;37131;42.694;23.350;2023-02-07T12:00:25;96865.41;;;-0.47;51.00
51083;BME280;37131;42.694;23.350;2023-02-07T12:03:02;96861.47;;;-0.51;52.60
51083;BME280;37131;42.694;23.350;2023-02-07T12:05:36;96860.88;;;0.02;51.08
51083;BME280;37131;42.694;23.350;2023-02-07T12:08:06;96864.94;;;0.04;51.80
51083;BME280;37131;42.694;23.350;2023-02-07T12:10:34;96864.69;;;0.07;49.91
51083;BME280;37131;42.694;23.350;2023-02-07T12:18:10;96856.34;;;-0.17;51.03
51083;BME280;37131;42.694;23.350;2023-02-07T12:20:51;96850.34;;;0.16;52.10
51083;BME280;37131;42.694;23.350;2023-02-07T12:23:20;96856.06;;;0.20;50.41
51083;BME280;37131;42.694;23.350;2023-02-07T12:25:51;96856.19;;;0.94;48.50
51083;BME280;37131;42.694;23.350;2023-02-07T12:28:26;96858.44;;;1.09;49.45
51083;BME280;37131;42.694;23.350;2023-02-07T12:30:56;96853.50;;;0.63;48.55
51083;BME280;37131;42.694;23.350;2023-02-07T12:38:23;96844.78;;;0.11;49.69
51083;BME280;37131;42.694;23.350;2023-02-07T12:43:23;96844.22;;;0.83;48.66
51083;BME280;37131;42.694;23.350;2023-02-07T12:48:30;96850.44;;;0.37;48.18
51083;BME280;37131;42.694;23.350;2023-02-07T12:58:45;96850.50;;;0.03;49.02
51083;BME280;37131;42.694;23.350;2023-02-07T13:01:19;96845.56;;;0.34;47.81
51083;BME280;37131;42.694;23.350;2023-02-07T13:16:14;96835.97;;;0.36;48.98
51083;BME280;37131;42.694;23.350;2023-02-07T13:23:58;96841.59;;;0.30;49.89
51083;BME280;37131;42.694;23.350;2023-02-07T13:26:24;96844.97;;;0.30;49.66
51083;BME280;37131;42.694;23.350;2023-02-07T13:28:53;96835.22;;;0.57;49.63
51083;BME280;37131;42.694;23.350;2023-02-07T13:31:22;96843.81;;;0.23;49.63
51083;BME280;37131;42.694;23.350;2023-02-07T13:33:49;96837.94;;;0.76;49.44
51083;BME280;37131;42.694;23.350;2023-02-07T13:38:53;96830.34;;;0.54;50.40
51083;BME280;37131;42.694;23.350;2023-02-07T13:56:59;96832.03;;;0.32;46.95
51083;BME280;37131;42.694;23.350;2023-02-07T13:59:43;96827.94;;;0.29;46.53
51083;BME280;37131;42.694;23.350;2023-02-07T14:02:28;96834.59;;;0.64;46.60
51083;BME280;37131;42.694;23.350;2023-02-07T14:04:55;96822.69;;;0.63;46.53
51083;BME280;37131;42.694;23.350;2023-02-07T14:07:23;96821.69;;;-0.01;47.52
51083;BME280;37131;42.694;23.350;2023-02-07T14:09:50;96825.72;;;0.25;47.99
51083;BME280;37131;42.694;23.350;2023-02-07T14:12:22;96822.38;;;0.24;48.27
51083;BME280;37131;42.694;23.350;2023-02-07T14:14:50;96825.28;;;0.20;47.87
51083;BME280;37131;42.694;23.350;2023-02-07T14:19:50;96833.47;;;0.02;49.53
51083;BME280;37131;42.694;23.350;2023-02-07T14:22:26;96831.56;;;0.27;49.31
51083;BME280;37131;42.694;23.350;2023-02-07T14:27:33;96823.34;;;0.12;48.18
51083;BME280;37131;42.694;23.350;2023-02-07T14:40:21;96831.53;;;0.38;48.37
51083;BME280;37131;42.694;23.350;2023-02-07T14:42:55;96826.69;;;0.12;50.09
51083;BME280;37131;42.694;23.350;2023-02-07T14:45:21;96824.53;;;-0.26;50.35
51083;BME280;37131;42.694;23.350;2023-02-07T14:47:47;96822.66;;;-0.24;50.57
51083;BME280;37131;42.694;23.350;2023-02-07T14:50:15;96827.56;;;-0.10;49.89
51083;BME280;37131;42.694;23.350;2023-02-07T14:52:41;96830.91;;;0.02;49.29
51083;BME280;37131;42.694;23.350;2023-02-07T14:55:14;96834.31;;;-0.31;49.44
51083;BME280;37131;42.694;23.350;2023-02-07T15:00:17;96837.25;;;-0.25;50.84
51083;BME280;37131;42.694;23.350;2023-02-07T15:05:22;96841.19;;;-0.32;52.10
51083;BME280;37131;42.694;23.350;2023-02-07T15:07:52;96836.78;;;-0.41;52.38
51083;BME280;37131;42.694;23.350;2023-02-07T15:12:46;96854.69;;;-0.52;53.78
51083;BME280;37131;42.694;23.350;2023-02-07T15:17:49;96843.13;;;-0.69;53.51
51083;BME280;37131;42.694;23.350;2023-02-07T15:20:17;96843.03;;;-0.57;54.64